Time;durP1;ratioP1;P1;durP2;ratioP2;P2;SDS_P1;SDS_P2;PMS_P1;PMS_P2;Temp;Humidity;BMP_temperature;BMP_pressure;BME280_temperature;BME280_humidity;BME280_pressure;Samples;Min_cycle;Max_cycle;Signal;HPM_P1;HPM_P2
2022/04/27 00:07:53;;;;;;;25.62;14.75;;;8.90;99.90;;;;;;6764663;88;20183;-80
2022/04/27 00:17:54;;;;;;;19.48;11.80;;;8.80;99.90;;;;;;6767844;88;20168;-80
2022/04/27 00:27:55;;;;;;;20.00;11.50;;;8.40;99.90;;;;;;6769276;88;20173;-80
2022/04/27 00:37:55;;;;;;;18.23;11.10;;;8.20;99.90;;;;;;6769097;88;20945;-79
2022/04/27 00:47:56;;;;;;;18.25;10.20;;;8.20;99.90;;;;;;6732373;88;20255;-79
2022/04/27 00:57:59;;;;;;;21.30;10.25;;;8.20;99.90;;;;;;6732155;88;20181;-79
2022/04/27 01:08:00;;;;;;;21.42;10.50;;;8.20;99.90;;;;;;6714453;88;20229;-79
2022/04/27 01:18:01;;;;;;;16.30;10.00;;;8.10;99.90;;;;;;6724193;88;20154;-80
2022/04/27 01:28:02;;;;;;;20.33;11.15;;;8.10;99.90;;;;;;6731111;88;20999;-79
2022/04/27 01:38:03;;;;;;;16.98;10.85;;;8.10;99.90;;;;;;6731176;88;20208;-80
2022/04/27 01:48:04;;;;;;;17.15;11.00;;;8.20;99.90;;;;;;6758522;88;20190;-79
2022/04/27 01:58:04;;;;;;;19.37;12.13;;;8.20;99.90;;;;;;6748386;88;20215;-79
2022/04/27 02:08:05;;;;;;;19.40;11.45;;;8.20;99.90;;;;;;6748558;87;21535;-81
2022/04/27 02:18:06;;;;;;;19.05;11.38;;;8.00;99.90;;;;;;6730982;88;20203;-79
2022/04/27 02:28:07;;;;;;;19.45;11.57;;;7.90;99.90;;;;;;6746418;88;21044;-79
2022/04/27 02:38:07;;;;;;;21.12;11.75;;;7.80;99.90;;;;;;6747815;88;20177;-79
2022/04/27 02:58:11;;;;;;;19.65;11.50;;;7.70;99.90;;;;;;6748756;88;20285;-81
2022/04/27 03:08:12;;;;;;;20.17;11.40;;;7.70;99.90;;;;;;6748444;88;20247;-80
2022/04/27 03:18:19;;;;;;;17.95;12.13;;;7.60;99.90;;;;;;6750940;88;20963;-80
2022/04/27 03:28:20;;;;;;;19.08;11.88;;;7.60;99.90;;;;;;6767289;88;20855;-79
2022/04/27 03:38:20;;;;;;;21.15;13.07;;;7.50;99.90;;;;;;6767047;88;20191;-80
2022/04/27 03:48:21;;;;;;;20.80;12.70;;;7.40;99.90;;;;;;6768774;88;20166;-79
2022/04/27 03:58:21;;;;;;;20.10;12.55;;;7.40;99.90;;;;;;6769507;88;20915;-79
2022/04/27 04:08:22;;;;;;;22.67;13.40;;;7.50;99.90;;;;;;6751963;88;20179;-79
2022/04/27 04:18:22;;;;;;;23.05;13.25;;;7.50;99.90;;;;;;6752505;88;20535;-81
2022/04/27 04:28:32;;;;;;;22.37;13.93;;;7.30;99.90;;;;;;6752375;88;20183;-80
2022/04/27 04:38:32;;;;;;;21.08;13.23;;;7.20;99.90;;;;;;6715474;88;20237;-79
2022/04/27 04:48:33;;;;;;;20.75;12.82;;;7.20;99.90;;;;;;6698244;89;20976;-79
2022/04/27 04:58:33;;;;;;;26.73;13.85;;;7.20;99.90;;;;;;6698003;89;20199;-79
2022/04/27 05:08:34;;;;;;;24.63;14.18;;;7.10;99.90;;;;;;6707721;88;20182;-79
2022/04/27 05:18:35;;;;;;;25.80;14.27;;;7.10;99.90;;;;;;6711379;88;20893;-80
2022/04/27 05:31:54;;;;;;;24.58;13.70;;;7.20;99.90;;;;;;6715198;88;20154;-80
2022/04/27 05:39:08;;;;;;;20.10;12.90;;;7.40;99.90;;;;;;6709771;88;20179;-79
2022/04/27 05:49:09;;;;;;;23.23;12.70;;;7.40;99.90;;;;;;6728930;88;20176;-80
2022/04/27 05:59:10;;;;;;;18.15;12.37;;;7.50;99.90;;;;;;6750766;88;20188;-79
2022/04/27 06:09:10;;;;;;;21.15;12.98;;;7.50;99.90;;;;;;6750223;88;20208;-80
2022/04/27 06:19:12;;;;;;;21.52;13.07;;;7.80;99.90;;;;;;6745854;88;20195;-78
2022/04/27 06:29:12;;;;;;;23.35;12.95;;;7.80;99.90;;;;;;6748646;88;20209;-79
2022/04/27 06:39:14;;;;;;;18.33;11.83;;;8.50;99.90;;;;;;6728782;88;20208;-80
2022/04/27 06:49:15;;;;;;;18.10;11.18;;;8.90;99.90;;;;;;6732951;88;20502;-81
2022/04/27 06:59:16;;;;;;;20.08;12.30;;;9.20;99.90;;;;;;6739820;88;20770;-80
2022/04/27 07:09:16;;;;;;;17.58;11.63;;;9.30;99.90;;;;;;6757902;88;20204;-80
2022/04/27 07:19:17;;;;;;;22.35;11.82;;;9.90;99.90;;;;;;6705327;88;20809;-80
2022/04/27 07:29:18;;;;;;;17.83;11.85;;;10.00;99.90;;;;;;6705697;89;20198;-80
2022/04/27 07:39:18;;;;;;;22.40;12.30;;;10.50;99.90;;;;;;6687324;89;20219;-80
2022/04/27 07:49:20;;;;;;;22.92;12.55;;;10.80;99.90;;;;;;6714897;88;20209;-81
2022/04/27 07:59:20;;;;;;;17.48;11.75;;;11.80;99.90;;;;;;6703585;88;20158;-81
2022/04/27 08:09:21;;;;;;;18.62;11.93;;;12.10;99.90;;;;;;6716616;88;20665;-81
2022/04/27 08:19:21;;;;;;;18.45;11.68;;;12.70;99.90;;;;;;6688669;89;20253;-82
2022/04/27 08:29:22;;;;;;;19.45;11.98;;;14.30;99.90;;;;;;6669283;89;20777;-80
2022/04/27 08:39:22;;;;;;;17.83;11.88;;;14.20;99.90;;;;;;6695236;88;20249;-80
2022/04/27 08:59:26;;;;;;;17.30;11.07;;;16.20;99.90;;;;;;6721262;88;20237;-80
2022/04/27 09:09:36;;;;;;;17.95;12.15;;;16.50;99.90;;;;;;6699508;88;20227;-79
2022/04/27 09:30:06;;;;;;;17.35;11.43;;;16.40;99.90;;;;;;6672406;89;20179;-80
2022/04/27 09:40:11;;;;;;;17.40;11.80;;;18.60;99.90;;;;;;6730614;88;20767;-79
2022/04/27 09:50:12;;;;;;;16.67;11.50;;;18.90;99.90;;;;;;6751840;88;20202;-80
2022/04/27 10:00:13;;;;;;;15.57;10.97;;;19.50;99.90;;;;;;6704282;87;20209;-79
2022/04/27 10:10:16;;;;;;;17.62;10.55;;;19.90;99.90;;;;;;6721227;87;20221;-80
2022/04/27 10:20:33;;;;;;;15.93;10.23;;;20.50;99.60;;;;;;6690908;89;20210;-79
2022/04/27 10:30:43;;;;;;;17.00;10.80;;;20.10;99.90;;;;;;6696846;87;20192;-80
2022/04/27 10:40:44;;;;;;;17.90;10.60;;;21.50;97.80;;;;;;6785304;87;20189;-79
2022/04/27 10:50:55;;;;;;;17.73;10.57;;;21.70;96.20;;;;;;6703386;87;20195;-79
2022/04/27 11:01:02;;;;;;;12.35;8.50;;;22.10;95.50;;;;;;6754150;87;20216;-80
2022/04/27 11:11:07;;;;;;;13.13;8.75;;;22.80;92.10;;;;;;6714052;87;20707;-80
2022/04/27 11:21:07;;;;;;;13.30;8.95;;;23.30;91.90;;;;;;6684592;89;20191;-80
2022/04/27 11:31:09;;;;;;;13.10;8.00;;;23.30;90.20;;;;;;6691772;89;20659;-81
2022/04/27 11:41:21;;;;;;;10.95;8.35;;;24.10;89.70;;;;;;6695542;87;20191;-78
2022/04/27 11:51:21;;;;;;;10.77;8.05;;;24.30;88.50;;;;;;6692156;88;20190;-79
2022/04/27 12:01:23;;;;;;;12.07;8.00;;;23.30;85.00;;;;;;6683496;89;20212;-79
2022/04/27 12:11:24;;;;;;;9.63;7.55;;;24.50;85.40;;;;;;6694502;87;20203;-80
2022/04/27 12:21:25;;;;;;;13.43;7.70;;;25.40;79.80;;;;;;6700309;89;20213;-79
2022/04/27 12:31:27;;;;;;;8.85;7.07;;;22.70;82.60;;;;;;6691463;89;20697;-79
2022/04/27 12:41:35;;;;;;;10.18;7.03;;;22.20;87.90;;;;;;6695572;87;20186;-78
2022/04/27 12:51:37;;;;;;;10.25;7.18;;;23.50;82.70;;;;;;6688279;87;20327;-79
2022/04/27 13:01:39;;;;;;;12.27;7.25;;;24.10;77.50;;;;;;6691886;87;20176;-79
2022/04/27 13:11:57;;;;;;;9.82;7.03;;;23.70;77.40;;;;;;6694056;89;20211;-79
2022/04/27 13:21:58;;;;;;;10.50;7.30;;;23.20;77.40;;;;;;6756424;87;20167;-78
2022/04/27 13:31:58;;;;;;;9.93;6.57;;;22.10;76.70;;;;;;6704561;87;20213;-79
2022/04/27 13:41:59;;;;;;;10.10;6.57;;;20.90;79.70;;;;;;6690999;87;20726;-79
2022/04/27 13:52:00;;;;;;;8.00;5.60;;;20.30;80.00;;;;;;6692790;87;20341;-79
2022/04/27 14:02:02;;;;;;;8.38;6.93;;;21.60;81.70;;;;;;6689780;89;20203;-78
2022/04/27 14:22:26;;;;;;;9.45;6.50;;;20.50;79.10;;;;;;6696499;87;20205;-79
2022/04/27 14:32:27;;;;;;;11.27;6.63;;;20.90;82.60;;;;;;6739452;87;20324;-80
2022/04/27 14:42:27;;;;;;;10.05;6.85;;;20.90;81.30;;;;;;6697975;87;20230;-79
2022/04/27 15:02:32;;;;;;;8.10;5.90;;;20.40;81.10;;;;;;6750992;88;20293;-79
2022/04/27 15:12:33;;;;;;;8.10;6.20;;;21.40;80.70;;;;;;6749081;88;20310;-81
2022/04/27 15:22:44;;;;;;;8.13;6.43;;;21.80;78.40;;;;;;6745056;88;20237;-80
2022/04/27 15:32:45;;;;;;;10.25;6.00;;;21.70;77.90;;;;;;6749916;88;20192;-81
2022/04/27 15:42:47;;;;;;;12.10;6.30;;;21.80;77.60;;;;;;6751282;88;20975;-79
2022/04/27 15:52:49;;;;;;;9.30;6.57;;;21.70;77.80;;;;;;6750970;88;20188;-79
2022/04/27 16:02:49;;;;;;;11.30;6.32;;;21.20;76.50;;;;;;6757507;88;20199;-79
2022/04/27 16:12:50;;;;;;;9.52;6.12;;;21.20;78.00;;;;;;6761334;88;20192;-82
2022/04/27 16:23:08;;;;;;;10.27;5.93;;;20.50;79.90;;;;;;6757557;88;20189;-79
2022/04/27 16:33:09;;;;;;;8.63;6.00;;;20.10;80.70;;;;;;6748102;88;20638;-80
2022/04/27 16:43:12;;;;;;;12.13;6.25;;;19.90;80.80;;;;;;6740164;88;20209;-79
2022/04/27 16:53:13;;;;;;;8.90;6.43;;;19.70;80.50;;;;;;6745361;88;20722;-79
2022/04/27 17:03:13;;;;;;;8.68;5.87;;;19.60;80.80;;;;;;6734113;88;20631;-79
2022/04/27 17:13:14;;;;;;;10.88;5.93;;;19.50;82.30;;;;;;6752533;87;20216;-80
2022/04/27 17:23:15;;;;;;;8.50;5.53;;;19.30;81.20;;;;;;6750822;88;20191;-79
2022/04/27 17:33:15;;;;;;;8.38;5.40;;;19.60;81.10;;;;;;6747916;88;20673;-79
2022/04/27 17:43:16;;;;;;;14.87;6.23;;;20.40;79.30;;;;;;6746677;88;20201;-77
2022/04/27 17:53:17;;;;;;;10.43;5.90;;;20.10;76.90;;;;;;6746270;88;20212;-80
2022/04/27 18:03:18;;;;;;;11.98;6.35;;;18.00;84.40;;;;;;6728730;88;20188;-79
2022/04/27 18:13:18;;;;;;;12.25;6.62;;;17.30;85.10;;;;;;6728488;88;20854;-80
2022/04/27 18:23:19;;;;;;;10.60;6.78;;;16.90;87.60;;;;;;6728907;88;20608;-80
2022/04/27 18:33:21;;;;;;;11.45;6.97;;;16.60;89.70;;;;;;6734659;88;20331;-80
2022/04/27 18:53:41;;;;;;;12.60;7.07;;;15.70;91.50;;;;;;6722144;88;20351;-80
2022/04/27 19:03:46;;;;;;;13.13;8.05;;;15.30;92.90;;;;;;6733978;88;20256;-80
2022/04/27 19:13:46;;;;;;;12.63;7.20;;;15.30;94.30;;;;;;6731060;88;20219;-80
2022/04/27 19:23:47;;;;;;;14.43;8.15;;;14.80;95.00;;;;;;6737907;88;20175;-79
2022/04/27 19:33:47;;;;;;;11.37;7.97;;;14.60;97.50;;;;;;6746992;88;20226;-81
2022/04/27 19:43:48;;;;;;;13.75;8.77;;;14.40;98.90;;;;;;6744217;88;20531;-80
2022/04/27 19:53:50;;;;;;;12.63;8.18;;;14.00;99.20;;;;;;6747686;88;20259;-80
2022/04/27 20:03:51;;;;;;;11.48;7.05;;;14.00;99.90;;;;;;6747942;88;20185;-80
2022/04/27 20:13:53;;;;;;;14.32;7.62;;;13.70;99.90;;;;;;6748263;88;20256;-81
2022/04/27 20:23:53;;;;;;;11.80;7.30;;;13.40;99.90;;;;;;6751991;88;20184;-81
2022/04/27 20:33:54;;;;;;;12.55;7.72;;;13.20;99.90;;;;;;6754725;88;20201;-81
2022/04/27 20:43:54;;;;;;;11.68;7.20;;;13.00;99.90;;;;;;6748243;88;20748;-79
2022/04/27 20:54:15;;;;;;;11.52;7.60;;;12.80;99.90;;;;;;6733256;77;20764;-80
2022/04/27 21:04:16;;;;;;;13.57;8.70;;;12.50;99.90;;;;;;6751894;88;20220;-81
2022/04/27 21:14:17;;;;;;;12.75;8.38;;;12.20;99.90;;;;;;6750606;88;20210;-81
2022/04/27 21:24:22;;;;;;;14.75;8.70;;;12.10;99.90;;;;;;6749471;88;20647;-81
2022/04/27 21:34:22;;;;;;;13.80;8.60;;;11.90;99.90;;;;;;6747374;88;20288;-81
2022/04/27 21:44:23;;;;;;;11.45;7.93;;;11.80;99.90;;;;;;6745214;88;20804;-81
2022/04/27 21:54:24;;;;;;;13.30;8.50;;;11.60;99.90;;;;;;6751670;88;20208;-81
2022/04/27 22:04:25;;;;;;;14.70;9.35;;;11.50;99.90;;;;;;6752196;88;20193;-82
2022/04/27 22:14:26;;;;;;;14.85;9.10;;;11.30;99.90;;;;;;6755218;88;21249;-81
2022/04/27 22:24:27;;;;;;;14.70;8.60;;;11.10;99.90;;;;;;6750596;88;20193;-81
2022/04/27 22:34:27;;;;;;;18.67;9.10;;;11.00;99.90;;;;;;6749003;88;20947;-82
2022/04/27 22:44:28;;;;;;;16.30;9.57;;;10.80;99.90;;;;;;6748345;88;20184;-81
2022/04/27 22:54:31;;;;;;;17.08;9.15;;;10.70;99.90;;;;;;6749983;88;20200;-82
2022/04/27 23:04:32;;;;;;;16.15;9.20;;;10.50;99.90;;;;;;6754357;88;20169;-81
2022/04/27 23:14:33;;;;;;;15.77;9.13;;;10.40;99.90;;;;;;6749660;88;20196;-82
2022/04/27 23:24:34;;;;;;;18.10;10.35;;;10.40;99.90;;;;;;6756512;88;20209;-81
2022/04/27 23:34:34;;;;;;;15.52;9.85;;;10.20;99.90;;;;;;6757869;88;20268;-81
2022/04/27 23:44:39;;;;;;;15.23;10.10;;;10.10;99.90;;;;;;6751515;88;20189;-80
2022/04/27 23:54:40;;;;;;;16.93;10.33;;;10.00;99.90;;;;;;6753682;88;20326;-79
